sensor_id;sensor_type;location;lat;lon;timestamp;P1;durP1;ratioP1;P2;durP2;ratioP2
18280;SDS011;9266;51.132;17.062;2024-02-16T00:00:28;24.17;;;15.73;;
18280;SDS011;9266;51.132;17.062;2024-02-16T00:02:56;21.00;;;16.00;;
18280;SDS011;9266;51.132;17.062;2024-02-16T00:05:24;21.83;;;15.40;;
18280;SDS011;9266;51.132;17.062;2024-02-16T00:07:52;24.90;;;16.03;;
18280;SDS011;9266;51.132;17.062;2024-02-16T00:10:19;22.77;;;17.30;;
18280;SDS011;9266;51.132;17.062;2024-02-16T00:12:47;22.67;;;17.30;;
18280;SDS011;9266;51.132;17.062;2024-02-16T00:15:14;24.00;;;16.70;;
18280;SDS011;9266;51.132;17.062;2024-02-16T00:17:41;22.80;;;16.50;;
18280;SDS011;9266;51.132;17.062;2024-02-16T00:20:08;22.60;;;16.97;;
18280;SDS011;9266;51.132;17.062;2024-02-16T00:22:37;24.83;;;17.03;;
18280;SDS011;9266;51.132;17.062;2024-02-16T00:25:06;24.90;;;16.97;;
18280;SDS011;9266;51.132;17.062;2024-02-16T00:27:34;25.87;;;17.97;;
18280;SDS011;9266;51.132;17.062;2024-02-16T00:30:00;25.13;;;18.23;;
18280;SDS011;9266;51.132;17.062;2024-02-16T00:32:28;24.47;;;17.60;;
18280;SDS011;9266;51.132;17.062;2024-02-16T00:34:57;22.47;;;16.77;;
18280;SDS011;9266;51.132;17.062;2024-02-16T00:37:24;26.13;;;17.97;;
18280;SDS011;9266;51.132;17.062;2024-02-16T00:39:51;25.10;;;18.20;;
18280;SDS011;9266;51.132;17.062;2024-02-16T00:42:21;27.70;;;18.43;;
18280;SDS011;9266;51.132;17.062;2024-02-16T00:44:48;26.57;;;19.03;;
18280;SDS011;9266;51.132;17.062;2024-02-16T00:47:15;29.10;;;20.07;;
18280;SDS011;9266;51.132;17.062;2024-02-16T00:49:42;23.43;;;17.87;;
18280;SDS011;9266;51.132;17.062;2024-02-16T00:52:09;24.13;;;18.30;;
18280;SDS011;9266;51.132;17.062;2024-02-16T00:54:36;26.23;;;18.87;;
18280;SDS011;9266;51.132;17.062;2024-02-16T00:57:03;27.97;;;18.53;;
18280;SDS011;9266;51.132;17.062;2024-02-16T00:59:32;27.37;;;19.13;;
18280;SDS011;9266;51.132;17.062;2024-02-16T01:01:59;25.67;;;18.47;;
18280;SDS011;9266;51.132;17.062;2024-02-16T01:04:26;26.33;;;19.67;;
18280;SDS011;9266;51.132;17.062;2024-02-16T01:06:55;27.13;;;19.27;;
18280;SDS011;9266;51.132;17.062;2024-02-16T01:09:21;28.97;;;20.47;;
18280;SDS011;9266;51.132;17.062;2024-02-16T01:11:48;29.03;;;20.23;;
18280;SDS011;9266;51.132;17.062;2024-02-16T01:14:15;29.20;;;19.73;;
18280;SDS011;9266;51.132;17.062;2024-02-16T01:16:44;28.03;;;21.17;;
18280;SDS011;9266;51.132;17.062;2024-02-16T01:19:12;29.67;;;21.37;;
18280;SDS011;9266;51.132;17.062;2024-02-16T01:21:39;29.83;;;22.10;;
18280;SDS011;9266;51.132;17.062;2024-02-16T01:24:06;34.83;;;21.77;;
18280;SDS011;9266;51.132;17.062;2024-02-16T01:26:33;32.43;;;22.57;;
18280;SDS011;9266;51.132;17.062;2024-02-16T01:29:00;33.53;;;23.30;;
18280;SDS011;9266;51.132;17.062;2024-02-16T01:31:27;32.17;;;23.40;;
18280;SDS011;9266;51.132;17.062;2024-02-16T01:33:56;29.90;;;22.03;;
18280;SDS011;9266;51.132;17.062;2024-02-16T01:36:23;34.27;;;23.67;;
18280;SDS011;9266;51.132;17.062;2024-02-16T01:38:50;35.43;;;23.57;;
18280;SDS011;9266;51.132;17.062;2024-02-16T01:41:17;32.57;;;23.83;;
18280;SDS011;9266;51.132;17.062;2024-02-16T01:43:44;34.00;;;23.57;;
18280;SDS011;9266;51.132;17.062;2024-02-16T01:46:10;33.73;;;23.30;;
18280;SDS011;9266;51.132;17.062;2024-02-16T01:48:37;31.83;;;22.73;;
18280;SDS011;9266;51.132;17.062;2024-02-16T01:51:07;35.57;;;24.47;;
18280;SDS011;9266;51.132;17.062;2024-02-16T01:53:35;34.87;;;24.70;;
18280;SDS011;9266;51.132;17.062;2024-02-16T01:56:02;33.33;;;23.93;;
18280;SDS011;9266;51.132;17.062;2024-02-16T01:58:30;33.47;;;24.40;;
18280;SDS011;9266;51.132;17.062;2024-02-16T02:00:57;34.07;;;25.00;;
18280;SDS011;9266;51.132;17.062;2024-02-16T02:03:24;35.77;;;24.70;;
18280;SDS011;9266;51.132;17.062;2024-02-16T02:05:51;32.57;;;24.10;;
18280;SDS011;9266;51.132;17.062;2024-02-16T02:08:21;38.63;;;24.63;;
18280;SDS011;9266;51.132;17.062;2024-02-16T02:10:48;34.37;;;25.03;;
18280;SDS011;9266;51.132;17.062;2024-02-16T02:13:15;34.33;;;24.37;;
18280;SDS011;9266;51.132;17.062;2024-02-16T02:15:44;38.20;;;25.37;;
18280;SDS011;9266;51.132;17.062;2024-02-16T02:18:11;35.13;;;24.67;;
18280;SDS011;9266;51.132;17.062;2024-02-16T02:20:39;37.80;;;25.23;;
18280;SDS011;9266;51.132;17.062;2024-02-16T02:23:07;35.93;;;25.27;;
18280;SDS011;9266;51.132;17.062;2024-02-16T02:25:34;33.80;;;25.40;;
18280;SDS011;9266;51.132;17.062;2024-02-16T02:28:01;32.27;;;24.20;;
18280;SDS011;9266;51.132;17.062;2024-02-16T02:30:29;34.40;;;24.17;;
18280;SDS011;9266;51.132;17.062;2024-02-16T02:32:56;33.33;;;24.17;;
18280;SDS011;9266;51.132;17.062;2024-02-16T02:35:23;35.47;;;24.03;;
18280;SDS011;9266;51.132;17.062;2024-02-16T02:37:50;38.43;;;25.40;;
18280;SDS011;9266;51.132;17.062;2024-02-16T02:40:18;34.63;;;23.87;;
18280;SDS011;9266;51.132;17.062;2024-02-16T02:42:45;36.53;;;24.00;;
18280;SDS011;9266;51.132;17.062;2024-02-16T02:45:12;34.23;;;22.87;;
18280;SDS011;9266;51.132;17.062;2024-02-16T02:47:39;32.97;;;22.53;;
18280;SDS011;9266;51.132;17.062;2024-02-16T02:50:07;33.33;;;22.83;;
18280;SDS011;9266;51.132;17.062;2024-02-16T02:52:34;32.37;;;22.73;;
18280;SDS011;9266;51.132;17.062;2024-02-16T02:55:01;31.50;;;23.03;;
18280;SDS011;9266;51.132;17.062;2024-02-16T02:57:30;30.50;;;22.50;;
18280;SDS011;9266;51.132;17.062;2024-02-16T03:00:02;32.07;;;22.80;;
18280;SDS011;9266;51.132;17.062;2024-02-16T03:02:31;32.17;;;23.37;;
18280;SDS011;9266;51.132;17.062;2024-02-16T03:04:58;34.37;;;24.70;;
18280;SDS011;9266;51.132;17.062;2024-02-16T03:07:25;33.17;;;23.17;;
18280;SDS011;9266;51.132;17.062;2024-02-16T03:09:52;32.57;;;23.13;;
18280;SDS011;9266;51.132;17.062;2024-02-16T03:12:19;33.83;;;22.77;;
18280;SDS011;9266;51.132;17.062;2024-02-16T03:14:48;31.53;;;23.10;;
18280;SDS011;9266;51.132;17.062;2024-02-16T03:17:15;31.30;;;23.67;;
18280;SDS011;9266;51.132;17.062;2024-02-16T03:19:42;31.07;;;22.70;;
18280;SDS011;9266;51.132;17.062;2024-02-16T03:22:09;30.00;;;22.17;;
18280;SDS011;9266;51.132;17.062;2024-02-16T03:24:36;29.40;;;22.03;;
18280;SDS011;9266;51.132;17.062;2024-02-16T03:27:03;33.67;;;23.70;;
18280;SDS011;9266;51.132;17.062;2024-02-16T03:29:30;32.87;;;23.80;;
18280;SDS011;9266;51.132;17.062;2024-02-16T03:31:59;33.70;;;24.20;;
18280;SDS011;9266;51.132;17.062;2024-02-16T03:34:26;34.33;;;23.47;;
18280;SDS011;9266;51.132;17.062;2024-02-16T03:36:53;36.30;;;24.67;;
18280;SDS011;9266;51.132;17.062;2024-02-16T03:39:20;35.07;;;24.00;;
18280;SDS011;9266;51.132;17.062;2024-02-16T03:41:47;34.70;;;24.73;;
18280;SDS011;9266;51.132;17.062;2024-02-16T03:44:14;35.13;;;24.93;;
18280;SDS011;9266;51.132;17.062;2024-02-16T03:46:42;36.20;;;25.57;;
18280;SDS011;9266;51.132;17.062;2024-02-16T03:49:10;40.90;;;26.27;;
18280;SDS011;9266;51.132;17.062;2024-02-16T03:51:38;37.57;;;25.97;;
18280;SDS011;9266;51.132;17.062;2024-02-16T03:54:04;39.67;;;26.30;;
18280;SDS011;9266;51.132;17.062;2024-02-16T03:56:31;42.53;;;27.47;;
18280;SDS011;9266;51.132;17.062;2024-02-16T03:58:59;37.87;;;27.70;;
18280;SDS011;9266;51.132;17.062;2024-02-16T04:01:25;34.80;;;25.17;;
18280;SDS011;9266;51.132;17.062;2024-02-16T04:03:52;39.27;;;26.37;;
18280;SDS011;9266;51.132;17.062;2024-02-16T04:06:20;36.17;;;26.27;;
18280;SDS011;9266;51.132;17.062;2024-02-16T04:08:47;38.63;;;27.60;;
18280;SDS011;9266;51.132;17.062;2024-02-16T04:11:14;39.90;;;26.33;;
18280;SDS011;9266;51.132;17.062;2024-02-16T04:13:42;41.57;;;28.17;;
18280;SDS011;9266;51.132;17.062;2024-02-16T04:16:09;42.10;;;27.83;;
18280;SDS011;9266;51.132;17.062;2024-02-16T04:18:36;42.83;;;28.97;;
18280;SDS011;9266;51.132;17.062;2024-02-16T04:21:03;44.97;;;29.77;;
18280;SDS011;9266;51.132;17.062;2024-02-16T04:23:32;42.97;;;27.77;;
18280;SDS011;9266;51.132;17.062;2024-02-16T04:25:59;39.97;;;27.30;;
18280;SDS011;9266;51.132;17.062;2024-02-16T04:28:26;40.03;;;29.63;;
18280;SDS011;9266;51.132;17.062;2024-02-16T04:30:53;45.20;;;29.10;;
18280;SDS011;9266;51.132;17.062;2024-02-16T04:33:20;43.37;;;29.83;;
18280;SDS011;9266;51.132;17.062;2024-02-16T04:35:47;43.70;;;30.60;;
18280;SDS011;9266;51.132;17.062;2024-02-16T04:38:15;45.60;;;31.43;;
18280;SDS011;9266;51.132;17.062;2024-02-16T04:40:44;49.73;;;32.00;;
18280;SDS011;9266;51.132;17.062;2024-02-16T04:43:12;49.50;;;32.60;;
18280;SDS011;9266;51.132;17.062;2024-02-16T04:45:39;48.03;;;32.50;;
18280;SDS011;9266;51.132;17.062;2024-02-16T04:48:06;51.80;;;32.87;;
18280;SDS011;9266;51.132;17.062;2024-02-16T04:50:34;48.17;;;31.73;;
18280;SDS011;9266;51.132;17.062;2024-02-16T04:53:01;47.87;;;32.77;;
18280;SDS011;9266;51.132;17.062;2024-02-16T04:55:28;47.03;;;32.13;;
18280;SDS011;9266;51.132;17.062;2024-02-16T04:57:57;49.47;;;32.87;;
18280;SDS011;9266;51.132;17.062;2024-02-16T05:00:24;53.83;;;33.27;;
18280;SDS011;9266;51.132;17.062;2024-02-16T05:02:52;54.63;;;33.33;;
18280;SDS011;9266;51.132;17.062;2024-02-16T05:05:19;53.47;;;34.07;;
18280;SDS011;9266;51.132;17.062;2024-02-16T05:07:47;50.90;;;35.00;;
18280;SDS011;9266;51.132;17.062;2024-02-16T05:10:15;51.13;;;34.27;;
18280;SDS011;9266;51.132;17.062;2024-02-16T05:12:44;53.50;;;34.13;;
18280;SDS011;9266;51.132;17.062;2024-02-16T05:15:13;51.20;;;34.03;;
18280;SDS011;9266;51.132;17.062;2024-02-16T05:17:40;53.50;;;33.80;;
18280;SDS011;9266;51.132;17.062;2024-02-16T05:20:09;53.83;;;34.40;;
18280;SDS011;9266;51.132;17.062;2024-02-16T05:22:40;51.37;;;34.03;;
18280;SDS011;9266;51.132;17.062;2024-02-16T05:25:08;56.77;;;34.63;;
18280;SDS011;9266;51.132;17.062;2024-02-16T05:27:36;57.33;;;34.47;;
18280;SDS011;9266;51.132;17.062;2024-02-16T05:30:04;53.00;;;32.90;;
18280;SDS011;9266;51.132;17.062;2024-02-16T05:32:34;54.33;;;32.97;;
18280;SDS011;9266;51.132;17.062;2024-02-16T05:35:02;51.23;;;33.60;;
18280;SDS011;9266;51.132;17.062;2024-02-16T05:37:36;56.23;;;34.10;;
18280;SDS011;9266;51.132;17.062;2024-02-16T05:40:06;53.80;;;33.63;;
18280;SDS011;9266;51.132;17.062;2024-02-16T05:42:44;58.07;;;34.40;;
18280;SDS011;9266;51.132;17.062;2024-02-16T05:45:12;54.47;;;33.93;;
18280;SDS011;9266;51.132;17.062;2024-02-16T05:47:41;54.80;;;33.93;;
18280;SDS011;9266;51.132;17.062;2024-02-16T05:50:10;51.17;;;32.10;;
18280;SDS011;9266;51.132;17.062;2024-02-16T05:52:38;50.63;;;32.57;;
18280;SDS011;9266;51.132;17.062;2024-02-16T05:55:06;49.83;;;31.73;;
18280;SDS011;9266;51.132;17.062;2024-02-16T05:57:34;52.47;;;32.27;;
18280;SDS011;9266;51.132;17.062;2024-02-16T06:00:02;54.80;;;32.90;;
18280;SDS011;9266;51.132;17.062;2024-02-16T06:02:30;61.47;;;34.80;;
18280;SDS011;9266;51.132;17.062;2024-02-16T06:04:58;56.33;;;34.13;;
18280;SDS011;9266;51.132;17.062;2024-02-16T06:07:25;57.43;;;33.40;;
18280;SDS011;9266;51.132;17.062;2024-02-16T06:09:54;55.47;;;34.57;;
18280;SDS011;9266;51.132;17.062;2024-02-16T06:12:21;54.43;;;33.73;;
18280;SDS011;9266;51.132;17.062;2024-02-16T06:14:48;57.47;;;34.37;;
18280;SDS011;9266;51.132;17.062;2024-02-16T06:17:15;53.83;;;33.37;;
18280;SDS011;9266;51.132;17.062;2024-02-16T06:19:42;50.40;;;32.67;;
18280;SDS011;9266;51.132;17.062;2024-02-16T06:22:11;51.40;;;32.27;;
18280;SDS011;9266;51.132;17.062;2024-02-16T06:24:38;52.40;;;34.30;;
18280;SDS011;9266;51.132;17.062;2024-02-16T06:27:05;51.70;;;32.60;;
18280;SDS011;9266;51.132;17.062;2024-02-16T06:29:33;53.03;;;32.30;;
18280;SDS011;9266;51.132;17.062;2024-02-16T06:32:02;49.53;;;31.97;;
18280;SDS011;9266;51.132;17.062;2024-02-16T06:34:29;50.03;;;32.17;;
18280;SDS011;9266;51.132;17.062;2024-02-16T06:36:57;50.00;;;32.37;;
18280;SDS011;9266;51.132;17.062;2024-02-16T06:39:25;47.10;;;31.87;;
18280;SDS011;9266;51.132;17.062;2024-02-16T06:41:52;47.30;;;30.27;;
18280;SDS011;9266;51.132;17.062;2024-02-16T06:44:19;44.60;;;29.00;;
18280;SDS011;9266;51.132;17.062;2024-02-16T06:46:46;40.40;;;28.10;;
18280;SDS011;9266;51.132;17.062;2024-02-16T06:49:13;35.27;;;25.23;;
18280;SDS011;9266;51.132;17.062;2024-02-16T06:51:40;33.57;;;24.33;;
18280;SDS011;9266;51.132;17.062;2024-02-16T06:54:07;35.83;;;25.03;;
18280;SDS011;9266;51.132;17.062;2024-02-16T06:56:36;32.40;;;22.93;;
18280;SDS011;9266;51.132;17.062;2024-02-16T06:59:03;27.57;;;20.83;;
18280;SDS011;9266;51.132;17.062;2024-02-16T07:01:30;32.57;;;22.07;;
18280;SDS011;9266;51.132;17.062;2024-02-16T07:03:57;27.20;;;20.33;;
18280;SDS011;9266;51.132;17.062;2024-02-16T07:06:24;27.77;;;19.47;;
18280;SDS011;9266;51.132;17.062;2024-02-16T07:08:51;24.90;;;18.20;;
18280;SDS011;9266;51.132;17.062;2024-02-16T07:11:19;27.23;;;18.30;;
18280;SDS011;9266;51.132;17.062;2024-02-16T07:13:48;24.77;;;17.53;;
18280;SDS011;9266;51.132;17.062;2024-02-16T07:16:15;22.23;;;17.07;;
18280;SDS011;9266;51.132;17.062;2024-02-16T07:18:43;21.33;;;15.57;;
18280;SDS011;9266;51.132;17.062;2024-02-16T07:21:10;20.23;;;14.30;;
18280;SDS011;9266;51.132;17.062;2024-02-16T07:23:37;20.37;;;14.87;;
18280;SDS011;9266;51.132;17.062;2024-02-16T07:26:04;21.37;;;14.27;;
18280;SDS011;9266;51.132;17.062;2024-02-16T07:28:32;18.43;;;13.57;;
18280;SDS011;9266;51.132;17.062;2024-02-16T07:31:01;17.13;;;13.37;;
18280;SDS011;9266;51.132;17.062;2024-02-16T07:33:29;20.87;;;13.73;;
18280;SDS011;9266;51.132;17.062;2024-02-16T07:35:56;17.90;;;13.33;;
18280;SDS011;9266;51.132;17.062;2024-02-16T07:38:23;16.17;;;12.40;;
18280;SDS011;9266;51.132;17.062;2024-02-16T07:40:50;15.30;;;12.43;;
18280;SDS011;9266;51.132;17.062;2024-02-16T07:43:17;20.13;;;12.80;;
18280;SDS011;9266;51.132;17.062;2024-02-16T07:45:44;15.87;;;11.93;;
18280;SDS011;9266;51.132;17.062;2024-02-16T07:48:12;13.17;;;10.77;;
18280;SDS011;9266;51.132;17.062;2024-02-16T07:50:39;15.73;;;11.20;;
18280;SDS011;9266;51.132;17.062;2024-02-16T07:53:06;12.80;;;10.67;;
18280;SDS011;9266;51.132;17.062;2024-02-16T07:55:35;13.13;;;10.80;;
18280;SDS011;9266;51.132;17.062;2024-02-16T07:58:02;13.03;;;10.57;;
18280;SDS011;9266;51.132;17.062;2024-02-16T08:00:29;16.40;;;11.20;;
18280;SDS011;9266;51.132;17.062;2024-02-16T08:02:56;15.60;;;10.50;;
18280;SDS011;9266;51.132;17.062;2024-02-16T08:05:24;12.13;;;9.53;;
18280;SDS011;9266;51.132;17.062;2024-02-16T08:07:52;15.27;;;11.17;;
18280;SDS011;9266;51.132;17.062;2024-02-16T08:10:19;12.40;;;9.23;;
18280;SDS011;9266;51.132;17.062;2024-02-16T08:12:47;14.10;;;10.20;;
18280;SDS011;9266;51.132;17.062;2024-02-16T08:15:14;12.53;;;10.17;;
18280;SDS011;9266;51.132;17.062;2024-02-16T08:17:47;14.80;;;11.17;;
18280;SDS011;9266;51.132;17.062;2024-02-16T08:20:14;13.47;;;10.67;;
18280;SDS011;9266;51.132;17.062;2024-02-16T08:22:43;14.50;;;10.10;;
18280;SDS011;9266;51.132;17.062;2024-02-16T08:25:10;19.73;;;11.00;;
18280;SDS011;9266;51.132;17.062;2024-02-16T08:27:37;14.00;;;9.70;;
18280;SDS011;9266;51.132;17.062;2024-02-16T08:30:04;13.33;;;10.10;;
18280;SDS011;9266;51.132;17.062;2024-02-16T08:32:34;13.60;;;10.27;;
18280;SDS011;9266;51.132;17.062;2024-02-16T08:35:01;13.23;;;10.73;;
18280;SDS011;9266;51.132;17.062;2024-02-16T08:37:28;13.40;;;10.60;;
18280;SDS011;9266;51.132;17.062;2024-02-16T08:39:56;12.00;;;10.03;;
18280;SDS011;9266;51.132;17.062;2024-02-16T08:42:23;14.37;;;10.50;;
18280;SDS011;9266;51.132;17.062;2024-02-16T08:44:50;15.17;;;10.67;;
18280;SDS011;9266;51.132;17.062;2024-02-16T08:47:17;14.13;;;10.03;;
18280;SDS011;9266;51.132;17.062;2024-02-16T08:49:44;14.80;;;10.33;;
18280;SDS011;9266;51.132;17.062;2024-02-16T08:52:11;13.07;;;9.53;;
18280;SDS011;9266;51.132;17.062;2024-02-16T08:54:38;13.07;;;9.87;;
18280;SDS011;9266;51.132;17.062;2024-02-16T08:57:06;12.27;;;9.53;;
18280;SDS011;9266;51.132;17.062;2024-02-16T08:59:35;13.00;;;9.93;;
18280;SDS011;9266;51.132;17.062;2024-02-16T09:02:02;13.27;;;9.47;;
18280;SDS011;9266;51.132;17.062;2024-02-16T09:04:29;11.97;;;9.77;;
18280;SDS011;9266;51.132;17.062;2024-02-16T09:06:56;14.97;;;9.73;;
18280;SDS011;9266;51.132;17.062;2024-02-16T09:09:23;18.60;;;10.83;;
18280;SDS011;9266;51.132;17.062;2024-02-16T09:11:50;13.27;;;9.97;;
18280;SDS011;9266;51.132;17.062;2024-02-16T09:14:19;13.63;;;9.60;;
18280;SDS011;9266;51.132;17.062;2024-02-16T09:16:48;14.03;;;9.77;;
18280;SDS011;9266;51.132;17.062;2024-02-16T09:19:17;15.20;;;9.77;;
18280;SDS011;9266;51.132;17.062;2024-02-16T09:21:44;15.57;;;9.63;;
18280;SDS011;9266;51.132;17.062;2024-02-16T09:24:11;13.40;;;9.63;;
18280;SDS011;9266;51.132;17.062;2024-02-16T09:26:43;13.80;;;9.67;;
18280;SDS011;9266;51.132;17.062;2024-02-16T09:29:12;12.60;;;10.00;;
18280;SDS011;9266;51.132;17.062;2024-02-16T09:31:41;19.17;;;10.43;;
18280;SDS011;9266;51.132;17.062;2024-02-16T09:34:08;14.13;;;10.37;;
18280;SDS011;9266;51.132;17.062;2024-02-16T09:36:35;13.40;;;10.27;;
18280;SDS011;9266;51.132;17.062;2024-02-16T09:39:02;16.13;;;10.80;;
18280;SDS011;9266;51.132;17.062;2024-02-16T09:41:29;15.67;;;11.03;;
18280;SDS011;9266;51.132;17.062;2024-02-16T09:44:00;15.80;;;10.43;;
18280;SDS011;9266;51.132;17.062;2024-02-16T09:46:28;13.03;;;9.93;;
18280;SDS011;9266;51.132;17.062;2024-02-16T09:48:58;12.67;;;9.97;;
18280;SDS011;9266;51.132;17.062;2024-02-16T09:51:28;22.97;;;11.93;;
18280;SDS011;9266;51.132;17.062;2024-02-16T09:53:55;16.77;;;11.03;;
18280;SDS011;9266;51.132;17.062;2024-02-16T09:56:22;14.03;;;10.07;;
18280;SDS011;9266;51.132;17.062;2024-02-16T09:58:50;15.10;;;10.83;;
18280;SDS011;9266;51.132;17.062;2024-02-16T10:01:18;21.70;;;11.50;;
18280;SDS011;9266;51.132;17.062;2024-02-16T10:03:46;14.53;;;10.90;;
18280;SDS011;9266;51.132;17.062;2024-02-16T10:06:16;13.47;;;10.20;;
18280;SDS011;9266;51.132;17.062;2024-02-16T10:08:49;15.53;;;10.00;;
18280;SDS011;9266;51.132;17.062;2024-02-16T10:11:17;16.97;;;10.97;;
18280;SDS011;9266;51.132;17.062;2024-02-16T10:13:54;16.50;;;9.77;;
18280;SDS011;9266;51.132;17.062;2024-02-16T10:16:22;12.90;;;9.50;;
18280;SDS011;9266;51.132;17.062;2024-02-16T10:18:50;14.53;;;10.07;;
18280;SDS011;9266;51.132;17.062;2024-02-16T10:21:27;17.77;;;10.43;;
18280;SDS011;9266;51.132;17.062;2024-02-16T10:23:56;13.57;;;10.10;;
18280;SDS011;9266;51.132;17.062;2024-02-16T10:26:25;13.27;;;9.53;;
18280;SDS011;9266;51.132;17.062;2024-02-16T10:28:55;16.40;;;9.83;;
18280;SDS011;9266;51.132;17.062;2024-02-16T10:31:23;12.83;;;9.27;;
18280;SDS011;9266;51.132;17.062;2024-02-16T10:33:56;11.93;;;8.80;;
18280;SDS011;9266;51.132;17.062;2024-02-16T10:36:24;13.13;;;9.07;;
18280;SDS011;9266;51.132;17.062;2024-02-16T10:38:55;16.03;;;8.90;;
18280;SDS011;9266;51.132;17.062;2024-02-16T10:41:25;10.87;;;8.23;;
18280;SDS011;9266;51.132;17.062;2024-02-16T10:43:54;11.03;;;7.50;;
18280;SDS011;9266;51.132;17.062;2024-02-16T10:46:22;11.20;;;7.40;;
18280;SDS011;9266;51.132;17.062;2024-02-16T10:48:50;8.33;;;5.53;;
18280;SDS011;9266;51.132;17.062;2024-02-16T10:51:19;10.00;;;5.23;;
18280;SDS011;9266;51.132;17.062;2024-02-16T10:53:50;8.70;;;5.50;;
18280;SDS011;9266;51.132;17.062;2024-02-16T10:56:28;9.07;;;5.30;;
18280;SDS011;9266;51.132;17.062;2024-02-16T10:59:00;8.57;;;5.50;;
18280;SDS011;9266;51.132;17.062;2024-02-16T11:01:36;9.13;;;5.43;;
18280;SDS011;9266;51.132;17.062;2024-02-16T11:04:04;7.17;;;5.23;;
18280;SDS011;9266;51.132;17.062;2024-02-16T11:06:44;7.90;;;5.80;;
18280;SDS011;9266;51.132;17.062;2024-02-16T11:09:22;7.60;;;4.67;;
18280;SDS011;9266;51.132;17.062;2024-02-16T11:11:54;9.30;;;4.80;;
18280;SDS011;9266;51.132;17.062;2024-02-16T11:14:21;7.47;;;5.03;;
18280;SDS011;9266;51.132;17.062;2024-02-16T11:16:53;11.90;;;7.27;;
18280;SDS011;9266;51.132;17.062;2024-02-16T11:19:21;7.07;;;4.80;;
18280;SDS011;9266;51.132;17.062;2024-02-16T11:21:55;6.63;;;4.80;;
18280;SDS011;9266;51.132;17.062;2024-02-16T11:24:29;6.17;;;4.63;;
18280;SDS011;9266;51.132;17.062;2024-02-16T11:27:00;7.47;;;4.90;;
18280;SDS011;9266;51.132;17.062;2024-02-16T11:29:29;6.10;;;4.57;;
18280;SDS011;9266;51.132;17.062;2024-02-16T11:32:00;5.83;;;4.73;;
18280;SDS011;9266;51.132;17.062;2024-02-16T11:34:28;6.13;;;4.60;;
18280;SDS011;9266;51.132;17.062;2024-02-16T11:36:56;7.47;;;5.00;;
18280;SDS011;9266;51.132;17.062;2024-02-16T11:39:23;8.57;;;4.90;;
18280;SDS011;9266;51.132;17.062;2024-02-16T11:42:02;8.03;;;4.97;;
18280;SDS011;9266;51.132;17.062;2024-02-16T11:44:31;7.73;;;4.77;;
18280;SDS011;9266;51.132;17.062;2024-02-16T11:47:00;5.57;;;4.50;;
18280;SDS011;9266;51.132;17.062;2024-02-16T11:49:28;7.50;;;5.17;;
18280;SDS011;9266;51.132;17.062;2024-02-16T11:51:55;8.53;;;5.07;;
18280;SDS011;9266;51.132;17.062;2024-02-16T11:54:25;9.57;;;5.20;;
18280;SDS011;9266;51.132;17.062;2024-02-16T11:56:52;10.00;;;5.80;;
18280;SDS011;9266;51.132;17.062;2024-02-16T11:59:21;7.03;;;4.80;;
18280;SDS011;9266;51.132;17.062;2024-02-16T12:01:49;5.80;;;4.53;;
18280;SDS011;9266;51.132;17.062;2024-02-16T12:04:21;5.47;;;4.47;;
18280;SDS011;9266;51.132;17.062;2024-02-16T12:06:50;7.13;;;5.07;;
18280;SDS011;9266;51.132;17.062;2024-02-16T12:09:18;5.77;;;4.37;;
18280;SDS011;9266;51.132;17.062;2024-02-16T12:11:46;5.70;;;5.07;;
18280;SDS011;9266;51.132;17.062;2024-02-16T12:14:14;7.87;;;4.87;;
18280;SDS011;9266;51.132;17.062;2024-02-16T12:16:46;7.43;;;4.90;;
18280;SDS011;9266;51.132;17.062;2024-02-16T12:19:13;7.23;;;4.70;;
18280;SDS011;9266;51.132;17.062;2024-02-16T12:21:40;6.63;;;5.03;;
18280;SDS011;9266;51.132;17.062;2024-02-16T12:24:07;8.73;;;5.07;;
18280;SDS011;9266;51.132;17.062;2024-02-16T12:26:35;9.67;;;4.70;;
18280;SDS011;9266;51.132;17.062;2024-02-16T12:29:02;10.37;;;5.30;;
18280;SDS011;9266;51.132;17.062;2024-02-16T12:31:29;5.73;;;4.80;;
18280;SDS011;9266;51.132;17.062;2024-02-16T12:33:58;8.17;;;4.70;;
18280;SDS011;9266;51.132;17.062;2024-02-16T12:36:26;9.30;;;5.00;;
18280;SDS011;9266;51.132;17.062;2024-02-16T12:38:53;6.13;;;5.10;;
18280;SDS011;9266;51.132;17.062;2024-02-16T12:41:20;8.90;;;5.27;;
18280;SDS011;9266;51.132;17.062;2024-02-16T12:43:47;8.63;;;5.30;;
18280;SDS011;9266;51.132;17.062;2024-02-16T12:46:14;5.60;;;4.77;;
18280;SDS011;9266;51.132;17.062;2024-02-16T12:48:42;6.57;;;5.13;;
18280;SDS011;9266;51.132;17.062;2024-02-16T12:51:10;8.60;;;5.30;;
18280;SDS011;9266;51.132;17.062;2024-02-16T12:53:37;8.27;;;5.77;;
18280;SDS011;9266;51.132;17.062;2024-02-16T12:56:06;7.90;;;4.70;;
18280;SDS011;9266;51.132;17.062;2024-02-16T12:58:34;5.80;;;4.83;;
18280;SDS011;9266;51.132;17.062;2024-02-16T13:01:01;5.80;;;4.70;;
18280;SDS011;9266;51.132;17.062;2024-02-16T13:03:31;6.97;;;4.63;;
18280;SDS011;9266;51.132;17.062;2024-02-16T13:05:59;8.90;;;4.90;;
18280;SDS011;9266;51.132;17.062;2024-02-16T13:08:27;8.60;;;5.00;;
18280;SDS011;9266;51.132;17.062;2024-02-16T13:10:55;9.37;;;6.30;;
18280;SDS011;9266;51.132;17.062;2024-02-16T13:13:23;8.37;;;5.57;;
18280;SDS011;9266;51.132;17.062;2024-02-16T13:15:50;7.67;;;5.83;;
18280;SDS011;9266;51.132;17.062;2024-02-16T13:18:17;6.80;;;5.10;;
18280;SDS011;9266;51.132;17.062;2024-02-16T13:20:44;6.60;;;5.10;;
18280;SDS011;9266;51.132;17.062;2024-02-16T13:23:12;8.17;;;5.67;;
18280;SDS011;9266;51.132;17.062;2024-02-16T13:25:40;6.87;;;4.80;;
18280;SDS011;9266;51.132;17.062;2024-02-16T13:28:07;8.20;;;5.67;;
18280;SDS011;9266;51.132;17.062;2024-02-16T13:30:34;9.23;;;5.33;;
18280;SDS011;9266;51.132;17.062;2024-02-16T13:33:02;10.30;;;5.83;;
18280;SDS011;9266;51.132;17.062;2024-02-16T13:35:29;5.87;;;4.60;;
18280;SDS011;9266;51.132;17.062;2024-02-16T13:37:56;6.83;;;4.53;;
18280;SDS011;9266;51.132;17.062;2024-02-16T13:40:23;6.30;;;5.20;;
18280;SDS011;9266;51.132;17.062;2024-02-16T13:42:52;7.30;;;5.47;;
18280;SDS011;9266;51.132;17.062;2024-02-16T13:45:20;7.80;;;5.40;;
18280;SDS011;9266;51.132;17.062;2024-02-16T13:47:50;10.93;;;6.43;;
18280;SDS011;9266;51.132;17.062;2024-02-16T13:50:17;6.97;;;5.33;;
18280;SDS011;9266;51.132;17.062;2024-02-16T13:52:44;6.80;;;5.43;;
18280;SDS011;9266;51.132;17.062;2024-02-16T13:55:12;7.73;;;5.63;;
18280;SDS011;9266;51.132;17.062;2024-02-16T13:57:39;8.10;;;5.93;;
18280;SDS011;9266;51.132;17.062;2024-02-16T14:00:08;9.97;;;6.70;;
18280;SDS011;9266;51.132;17.062;2024-02-16T14:02:35;11.57;;;6.10;;
18280;SDS011;9266;51.132;17.062;2024-02-16T14:05:03;9.07;;;6.33;;
18280;SDS011;9266;51.132;17.062;2024-02-16T14:07:30;9.63;;;6.00;;
18280;SDS011;9266;51.132;17.062;2024-02-16T14:09:58;9.73;;;6.40;;
18280;SDS011;9266;51.132;17.062;2024-02-16T14:12:25;8.60;;;6.07;;
18280;SDS011;9266;51.132;17.062;2024-02-16T14:14:52;8.87;;;5.63;;
18280;SDS011;9266;51.132;17.062;2024-02-16T14:17:20;14.93;;;6.70;;
18280;SDS011;9266;51.132;17.062;2024-02-16T14:19:47;10.13;;;6.73;;
18280;SDS011;9266;51.132;17.062;2024-02-16T14:22:14;9.17;;;6.10;;
18280;SDS011;9266;51.132;17.062;2024-02-16T14:24:41;7.80;;;6.07;;
18280;SDS011;9266;51.132;17.062;2024-02-16T14:27:08;11.47;;;7.17;;
18280;SDS011;9266;51.132;17.062;2024-02-16T14:29:35;11.70;;;7.60;;
18280;SDS011;9266;51.132;17.062;2024-02-16T14:32:02;9.33;;;7.70;;